70MA weather

Tobey Hospital Heliport
Wareham, Massachusetts, United States

Public forecast

Using degrees Fahrenheit for public forecast. Weather courtesy of forecast.io.

METAR (pilot weather report)

Closest report is Plymouth Municipal Airport, 9.3 nm (17.2 km) N. Retrieved 2019/07/24 07:52 UTC (49 minutes ago):

KPYM 240752Z AUTO 04006KT 10SM -RA FEW110 17/16 A2985 RMK AO2 SLP109 P0004 T01670156

TAF (pilot weather forecast)

Closest forecast is Cape Cod Coast Guard Air Station, 10.4 nm (19.3 km) SE. Retrieved 2019/07/24 06:51 UTC (2 hours ago):

TAF COR KFMH 240549Z 2406/2506 00000KT P6SM -SHRA OVC060 FM240900 03003KT P6SM -SHRA OVC050 FM241200 03007KT P6SM OVC060 FM241700 04008KT P6SM BKN060 FM242100 06007KT P6SM BKN060 FM250000 08004KT P6SM BKN050 FM250200 00000KT P6SM SCT060